Deutschlandsberg, Austria
Current Conditions -  °F | °C
As of 7:50 AM on Sunday 26 Oct 2014 (Local Time) from LOWG Reporting Station
Haze Haze  
Wind Chill: 43°   Ceiling: 800
Heat Index: 43°   Visibility: 3mi
Dew Point: 41°   Wind: 1mph
Humidity: 93%   Direction: NA
Pressure: 30.36"   Gusts: NA
Location:  46.82°N, 15.21°E
Report Text: LOWG 260550Z VRB01KT 5000 BR FEW005 SCT006 BKN008 06/05 Q1028 TEMPO 4000 BKN006
Loading
Personal Weather Stations






























Interactive Weather Map
Tropical Storm Tracking
New forecast layout! Learn more

10-Day Weather Forecast

Advertisements
Track Severe Weather on mobile